Time;durP1;ratioP1;P1;durP2;ratioP2;P2;SDS_P1;SDS_P2;PMS_P1;PMS_P2;Temp;Humidity;BMP_temperature;BMP_pressure;BME280_temperature;BME280_humidity;BME280_pressure;Samples;Min_cycle;Max_cycle;Signal;HPM_P1;HPM_P2
2020/12/26 00:00:32;;;;;;;0.50;0.50;;;6.40;54.50;;;;;;5038091;28;20212;-67
2020/12/26 00:02:58;;;;;;;0.60;0.60;;;6.40;54.50;;;;;;5039171;28;20232;-68
2020/12/26 00:05:24;;;;;;;0.47;0.47;;;6.40;54.40;;;;;;5038717;28;20917;-67
2020/12/26 00:07:53;;;;;;;0.67;0.67;;;6.40;54.30;;;;;;5039377;28;20685;-68
2020/12/26 00:10:20;;;;;;;1.53;1.43;;;6.40;54.30;;;;;;5037728;28;20214;-70
2020/12/26 00:12:48;;;;;;;0.80;0.80;;;6.40;54.30;;;;;;5038904;28;20286;-67
2020/12/26 00:15:14;;;;;;;0.50;0.50;;;6.40;54.20;;;;;;5037626;28;20242;-69
2020/12/26 00:17:42;;;;;;;0.77;0.77;;;6.40;54.10;;;;;;5036014;28;20224;-67
2020/12/26 00:20:09;;;;;;;0.80;0.80;;;6.40;54.00;;;;;;5036500;28;20215;-67
2020/12/26 00:22:36;;;;;;;0.80;0.80;;;6.40;54.20;;;;;;5039779;28;20287;-68
2020/12/26 00:25:03;;;;;;;0.90;0.90;;;6.40;54.30;;;;;;5037507;28;20271;-68
2020/12/26 00:27:30;;;;;;;1.00;0.90;;;6.40;54.50;;;;;;5037056;28;20206;-70
2020/12/26 00:29:56;;;;;;;0.97;0.97;;;6.40;54.40;;;;;;5037477;28;20202;-68
2020/12/26 00:32:23;;;;;;;1.03;1.03;;;6.40;54.70;;;;;;5036843;28;20575;-68
2020/12/26 00:34:51;;;;;;;3.80;2.20;;;6.40;54.80;;;;;;5036083;28;20679;-71
2020/12/26 00:37:17;;;;;;;2.77;2.00;;;6.40;55.60;;;;;;5034447;28;20205;-68
2020/12/26 00:39:45;;;;;;;1.57;1.47;;;6.40;55.20;;;;;;5036097;28;20213;-70
2020/12/26 00:42:12;;;;;;;1.40;1.30;;;6.50;55.40;;;;;;5033122;28;20209;-67
2020/12/26 00:44:38;;;;;;;1.43;1.30;;;6.50;55.50;;;;;;5032647;28;20601;-69
2020/12/26 00:47:05;;;;;;;1.63;1.50;;;6.50;55.50;;;;;;5028079;28;20237;-67
2020/12/26 00:49:31;;;;;;;1.40;1.30;;;6.50;55.60;;;;;;5033195;28;20214;-68
2020/12/26 00:51:59;;;;;;;1.30;1.20;;;6.50;55.70;;;;;;5037252;28;20222;-66
2020/12/26 00:54:25;;;;;;;1.57;1.40;;;6.60;55.80;;;;;;5041525;28;20221;-66
2020/12/26 00:56:51;;;;;;;1.60;1.50;;;6.60;55.80;;;;;;5043286;28;20236;-66
2020/12/26 00:59:18;;;;;;;1.43;1.33;;;6.60;55.80;;;;;;5046229;28;20208;-65
2020/12/26 01:01:44;;;;;;;1.30;1.20;;;6.60;55.80;;;;;;5043399;28;20292;-66
2020/12/26 01:04:11;;;;;;;1.17;1.07;;;6.60;55.80;;;;;;5045027;28;20620;-66
2020/12/26 01:06:37;;;;;;;1.10;1.10;;;6.60;55.70;;;;;;5041781;28;20234;-66
2020/12/26 01:09:04;;;;;;;1.47;1.37;;;6.60;55.70;;;;;;5039208;28;20286;-65
2020/12/26 01:11:31;;;;;;;1.30;1.20;;;6.60;55.60;;;;;;5040995;28;20233;-65
2020/12/26 01:13:57;;;;;;;1.30;1.20;;;6.60;55.60;;;;;;5040538;28;20605;-66
2020/12/26 01:16:24;;;;;;;1.30;1.20;;;6.60;55.60;;;;;;5043421;28;20234;-65
2020/12/26 01:18:50;;;;;;;1.40;1.30;;;6.60;55.50;;;;;;5041309;28;20256;-65
2020/12/26 01:21:17;;;;;;;1.27;1.17;;;6.60;55.50;;;;;;5040451;28;20784;-66
2020/12/26 01:23:43;;;;;;;1.47;1.37;;;6.60;55.50;;;;;;5040202;28;20578;-66
2020/12/26 01:26:10;;;;;;;1.23;1.10;;;6.60;55.60;;;;;;5041529;28;20233;-65
2020/12/26 01:28:37;;;;;;;1.33;1.23;;;6.60;55.60;;;;;;5038146;28;20342;-66
2020/12/26 01:31:03;;;;;;;1.30;1.20;;;6.60;55.70;;;;;;5037741;28;20214;-65
2020/12/26 01:33:30;;;;;;;1.50;1.40;;;6.50;55.60;;;;;;5040049;28;20234;-66
2020/12/26 01:35:56;;;;;;;1.40;1.30;;;6.60;55.70;;;;;;5038669;28;20250;-66
2020/12/26 01:38:22;;;;;;;1.63;1.10;;;6.60;55.70;;;;;;5041184;28;20588;-67
2020/12/26 01:40:50;;;;;;;1.47;1.37;;;6.50;55.60;;;;;;5039047;28;20217;-66
2020/12/26 01:43:18;;;;;;;1.17;1.17;;;6.50;55.60;;;;;;5037607;28;20252;-66
2020/12/26 01:45:45;;;;;;;1.57;1.30;;;6.50;55.50;;;;;;5040851;28;20408;-66
2020/12/26 01:48:17;;;;;;;1.33;1.23;;;6.50;55.50;;;;;;5035934;28;20213;-66
2020/12/26 01:50:43;;;;;;;1.00;1.00;;;6.50;55.50;;;;;;5039049;28;20237;-64
2020/12/26 01:53:12;;;;;;;1.03;1.03;;;6.40;55.50;;;;;;5036874;28;20264;-65
2020/12/26 01:55:40;;;;;;;1.20;1.10;;;6.40;55.40;;;;;;5036959;28;20226;-66
2020/12/26 01:58:13;;;;;;;1.40;1.10;;;6.40;55.40;;;;;;5040836;28;20609;-66
2020/12/26 02:00:41;;;;;;;1.30;1.20;;;6.40;55.30;;;;;;5039799;28;20525;-65
2020/12/26 02:03:09;;;;;;;2.10;1.33;;;6.30;55.30;;;;;;5039216;28;20275;-65
2020/12/26 02:05:36;;;;;;;1.60;1.50;;;6.20;55.30;;;;;;5040661;28;20222;-65
2020/12/26 02:08:05;;;;;;;1.20;1.20;;;6.10;55.20;;;;;;5039899;28;20218;-66
2020/12/26 02:10:33;;;;;;;1.40;1.30;;;6.10;55.30;;;;;;5037776;28;20229;-67
2020/12/26 02:12:59;;;;;;;1.67;1.37;;;6.00;55.40;;;;;;5041620;28;20295;-67
2020/12/26 02:17:57;;;;;;;1.73;1.63;;;5.90;55.40;;;;;;5036884;28;20264;-66
2020/12/26 02:20:23;;;;;;;1.60;1.50;;;5.80;55.50;;;;;;5040301;28;20304;-68
2020/12/26 02:22:50;;;;;;;1.70;1.60;;;5.70;56.10;;;;;;5037746;28;20216;-70
2020/12/26 02:25:17;;;;;;;1.60;1.50;;;5.60;55.70;;;;;;5040124;28;20205;-66
2020/12/26 02:27:44;;;;;;;1.93;1.63;;;5.50;55.80;;;;;;5020743;28;20213;-66
2020/12/26 02:30:10;;;;;;;2.20;2.00;;;5.50;56.00;;;;;;5019254;28;20352;-69
2020/12/26 02:32:37;;;;;;;1.70;1.60;;;5.40;56.10;;;;;;5019053;28;20599;-66
2020/12/26 02:35:05;;;;;;;1.97;1.83;;;5.30;56.10;;;;;;5020952;28;20211;-67
2020/12/26 02:37:31;;;;;;;1.70;1.60;;;5.30;56.20;;;;;;5019452;28;20273;-67
2020/12/26 02:39:58;;;;;;;1.87;1.77;;;5.20;56.20;;;;;;5019035;28;20206;-67
2020/12/26 02:42:25;;;;;;;2.17;1.97;;;5.20;56.20;;;;;;5018411;28;20209;-67
2020/12/26 02:44:51;;;;;;;2.10;1.90;;;5.10;56.20;;;;;;5019699;28;20221;-66
2020/12/26 02:47:18;;;;;;;2.00;1.90;;;5.00;56.30;;;;;;5022941;28;20285;-67
2020/12/26 02:49:44;;;;;;;2.07;1.87;;;4.90;56.40;;;;;;5020845;28;20217;-66
2020/12/26 02:52:11;;;;;;;1.73;1.63;;;4.80;56.60;;;;;;5019079;28;20222;-66
2020/12/26 02:54:37;;;;;;;1.83;1.73;;;4.80;56.80;;;;;;5019910;28;20202;-68
2020/12/26 02:57:04;;;;;;;2.20;2.07;;;4.70;57.00;;;;;;5020594;28;20226;-67
2020/12/26 02:59:31;;;;;;;2.47;2.27;;;4.70;57.70;;;;;;5019604;28;20303;-69
2020/12/26 03:01:57;;;;;;;2.40;2.20;;;4.70;57.60;;;;;;5019709;28;20684;-67
2020/12/26 03:04:24;;;;;;;2.10;1.93;;;4.70;57.90;;;;;;5019382;28;20202;-67
2020/12/26 03:06:50;;;;;;;2.33;2.13;;;4.80;58.00;;;;;;5019427;28;20610;-69
2020/12/26 03:09:17;;;;;;;2.40;2.20;;;4.80;58.00;;;;;;5020238;28;20211;-69
2020/12/26 03:11:43;;;;;;;2.50;2.30;;;4.90;58.10;;;;;;5018397;28;20317;-66
2020/12/26 03:14:10;;;;;;;3.07;2.20;;;4.90;58.00;;;;;;5018515;28;20222;-69
2020/12/26 03:16:38;;;;;;;2.50;2.30;;;4.90;58.00;;;;;;5018411;28;20615;-66
2020/12/26 03:19:04;;;;;;;2.57;2.37;;;4.90;57.90;;;;;;5020190;28;20211;-67
2020/12/26 03:21:30;;;;;;;2.20;2.10;;;5.00;57.90;;;;;;5019921;28;20203;-67
2020/12/26 03:23:57;;;;;;;2.30;2.20;;;5.00;57.80;;;;;;5019173;28;20207;-65
2020/12/26 03:26:23;;;;;;;2.30;2.10;;;5.00;57.90;;;;;;5019030;28;20731;-67
2020/12/26 03:28:50;;;;;;;2.20;2.10;;;5.00;58.30;;;;;;5018788;28;20211;-66
2020/12/26 03:31:16;;;;;;;2.30;2.20;;;5.00;58.00;;;;;;5018362;28;20202;-68
2020/12/26 03:33:43;;;;;;;2.80;2.60;;;5.00;58.10;;;;;;5018807;28;20708;-70
2020/12/26 03:36:10;;;;;;;2.90;2.70;;;5.00;58.10;;;;;;5019615;28;20234;-68
2020/12/26 03:38:36;;;;;;;2.50;2.30;;;5.10;58.10;;;;;;5019415;28;20640;-68
2020/12/26 03:41:03;;;;;;;2.30;2.20;;;5.10;58.10;;;;;;5019457;28;20735;-66
2020/12/26 03:43:29;;;;;;;2.60;2.40;;;5.10;58.00;;;;;;5019397;28;20544;-67
2020/12/26 03:45:56;;;;;;;2.87;2.67;;;5.10;58.00;;;;;;5020336;28;20234;-70
2020/12/26 03:48:22;;;;;;;2.80;2.60;;;5.10;57.90;;;;;;5019721;28;20693;-66
2020/12/26 03:50:50;;;;;;;2.70;2.50;;;5.10;57.70;;;;;;5017529;28;20213;-68
2020/12/26 03:53:16;;;;;;;2.70;2.40;;;5.10;57.60;;;;;;5018266;28;20326;-68
2020/12/26 03:55:42;;;;;;;2.50;2.30;;;5.00;57.40;;;;;;5019734;28;20230;-67
2020/12/26 03:58:09;;;;;;;2.37;2.20;;;5.00;57.40;;;;;;5018522;28;20214;-65
2020/12/26 04:00:35;;;;;;;2.70;2.50;;;4.90;57.30;;;;;;5017561;28;20694;-66
2020/12/26 04:03:02;;;;;;;2.50;2.30;;;4.80;57.30;;;;;;5019576;28;20210;-66
2020/12/26 04:05:28;;;;;;;2.53;2.33;;;4.70;57.20;;;;;;5017884;28;20214;-65
2020/12/26 04:07:55;;;;;;;2.80;2.60;;;4.60;57.20;;;;;;5019113;28;20211;-66
2020/12/26 04:10:22;;;;;;;2.90;2.70;;;4.60;57.40;;;;;;5017013;28;20630;-65
2020/12/26 04:12:48;;;;;;;2.60;2.40;;;4.40;57.40;;;;;;5019543;28;20234;-67
2020/12/26 04:15:15;;;;;;;2.50;2.30;;;4.40;57.60;;;;;;5019359;28;20213;-67
2020/12/26 04:17:41;;;;;;;2.70;2.50;;;4.30;57.60;;;;;;5018504;28;20247;-65
2020/12/26 04:20:08;;;;;;;2.87;2.67;;;4.20;57.70;;;;;;5018264;28;20268;-67
2020/12/26 04:22:34;;;;;;;2.80;2.60;;;4.20;57.90;;;;;;5018169;28;20199;-66
2020/12/26 04:25:02;;;;;;;2.90;2.60;;;4.10;58.20;;;;;;5019770;28;20206;-66
2020/12/26 04:27:28;;;;;;;3.13;2.87;;;4.10;58.20;;;;;;5020553;28;20223;-67
2020/12/26 04:29:55;;;;;;;2.80;2.53;;;4.00;58.20;;;;;;5023707;28;20265;-67
2020/12/26 04:32:21;;;;;;;3.77;3.47;;;4.00;58.30;;;;;;5023263;28;20238;-67
2020/12/26 04:34:48;;;;;;;3.53;3.33;;;3.90;58.50;;;;;;5023348;28;20210;-66
2020/12/26 04:37:14;;;;;;;3.80;3.50;;;3.90;58.70;;;;;;5022231;28;20582;-68
2020/12/26 04:39:43;;;;;;;3.73;3.40;;;3.90;58.80;;;;;;5023363;28;20206;-64
2020/12/26 04:42:11;;;;;;;4.50;4.10;;;3.90;59.00;;;;;;5021299;28;20233;-65
2020/12/26 04:44:37;;;;;;;4.07;3.77;;;3.90;59.10;;;;;;5022740;28;20203;-65
2020/12/26 04:47:12;;;;;;;4.70;4.30;;;3.90;59.20;;;;;;5023196;28;20234;-66
2020/12/26 04:49:40;;;;;;;4.27;3.90;;;4.00;59.30;;;;;;5022149;28;20522;-68
2020/12/26 04:52:10;;;;;;;4.50;4.10;;;4.00;59.20;;;;;;5021584;28;20264;-67
2020/12/26 04:54:43;;;;;;;4.83;4.43;;;4.00;59.20;;;;;;5022342;28;20210;-68
2020/12/26 04:57:11;;;;;;;5.07;4.67;;;4.10;59.30;;;;;;5020445;28;20231;-66
2020/12/26 04:59:38;;;;;;;4.57;4.17;;;4.10;59.20;;;;;;5021587;28;20257;-68
2020/12/26 05:02:05;;;;;;;4.37;4.07;;;4.10;59.10;;;;;;5020857;28;20230;-66
2020/12/26 05:04:32;;;;;;;5.23;4.83;;;4.10;59.20;;;;;;5021257;28;20233;-66
2020/12/26 05:06:58;;;;;;;4.70;4.40;;;4.20;59.30;;;;;;5020629;28;20242;-67
2020/12/26 05:09:25;;;;;;;4.90;4.50;;;4.20;59.10;;;;;;5020769;28;21850;-66
2020/12/26 05:11:53;;;;;;;4.57;4.17;;;4.20;59.00;;;;;;5021824;28;20214;-67
2020/12/26 05:14:21;;;;;;;4.83;4.43;;;4.20;59.20;;;;;;5023016;28;20214;-66
2020/12/26 05:16:48;;;;;;;5.00;4.57;;;4.20;59.40;;;;;;5021482;28;20242;-67
2020/12/26 05:19:15;;;;;;;5.13;4.63;;;4.20;59.50;;;;;;5021823;28;20220;-66
2020/12/26 05:21:44;;;;;;;4.60;4.20;;;4.30;59.60;;;;;;5021111;28;20206;-65
2020/12/26 05:24:12;;;;;;;4.87;4.47;;;4.30;59.50;;;;;;5022212;28;20264;-65
2020/12/26 05:26:42;;;;;;;4.57;4.17;;;4.40;59.50;;;;;;5021204;28;20262;-67
2020/12/26 05:29:10;;;;;;;4.37;3.97;;;4.40;59.30;;;;;;5021785;28;20217;-67
2020/12/26 05:31:54;;;;;;;4.57;4.17;;;4.40;59.10;;;;;;5022459;28;20214;-66
2020/12/26 05:34:22;;;;;;;4.20;3.80;;;4.40;59.10;;;;;;5020814;28;20226;-67
2020/12/26 05:36:49;;;;;;;3.63;3.33;;;4.40;58.80;;;;;;5019761;28;20241;-67
2020/12/26 05:39:15;;;;;;;4.23;3.93;;;4.40;58.70;;;;;;5020183;28;20268;-68
2020/12/26 05:41:44;;;;;;;4.50;4.10;;;4.30;58.70;;;;;;5019301;28;20210;-68
2020/12/26 05:44:13;;;;;;;4.13;3.83;;;4.30;58.80;;;;;;5021531;28;20280;-68
2020/12/26 05:46:57;;;;;;;3.93;3.63;;;4.30;58.90;;;;;;5020660;28;20237;-68
2020/12/26 05:49:28;;;;;;;3.73;3.43;;;4.30;59.10;;;;;;5020531;28;20207;-67
2020/12/26 05:52:03;;;;;;;3.73;3.20;;;4.30;59.10;;;;;;5020241;28;20206;-67
2020/12/26 05:54:30;;;;;;;3.73;3.43;;;4.30;59.20;;;;;;5021164;28;20248;-66
2020/12/26 05:57:12;;;;;;;3.40;3.10;;;4.30;59.30;;;;;;5020681;28;20613;-66
2020/12/26 05:59:40;;;;;;;3.33;3.13;;;4.30;59.40;;;;;;5019943;28;20318;-67
2020/12/26 06:02:26;;;;;;;4.00;3.70;;;4.30;59.50;;;;;;5021107;28;20203;-68
2020/12/26 06:05:01;;;;;;;3.60;3.30;;;4.40;59.60;;;;;;5020852;28;20272;-66
2020/12/26 06:07:32;;;;;;;3.70;3.40;;;4.50;59.50;;;;;;5020734;28;20252;-67
2020/12/26 06:10:00;;;;;;;3.20;3.00;;;4.50;59.50;;;;;;5021796;28;20210;-66
2020/12/26 06:12:28;;;;;;;3.30;3.10;;;4.50;59.50;;;;;;5020783;28;20790;-65
2020/12/26 06:14:56;;;;;;;3.73;3.43;;;4.60;59.40;;;;;;5020025;28;20206;-69
2020/12/26 06:17:27;;;;;;;3.67;3.37;;;4.60;59.40;;;;;;5020282;28;20237;-68
2020/12/26 06:20:03;;;;;;;3.47;3.23;;;4.70;59.40;;;;;;5020622;28;20774;-67
2020/12/26 06:22:45;;;;;;;3.33;3.03;;;4.70;59.40;;;;;;5019995;28;20206;-67
2020/12/26 06:25:15;;;;;;;3.63;3.33;;;4.80;59.30;;;;;;5020925;28;20214;-66
2020/12/26 06:27:59;;;;;;;3.33;3.13;;;4.80;59.30;;;;;;5019733;28;20235;-68
2020/12/26 06:30:27;;;;;;;3.77;3.47;;;4.90;59.20;;;;;;5021242;28;20214;-68
2020/12/26 06:32:57;;;;;;;4.57;3.40;;;4.90;59.10;;;;;;5020053;28;20229;-69
2020/12/26 06:35:23;;;;;;;3.43;3.23;;;5.00;59.00;;;;;;5019728;28;20206;-67
2020/12/26 06:38:15;;;;;;;3.50;3.20;;;5.00;59.00;;;;;;5019812;28;20322;-65
2020/12/26 06:41:02;;;;;;;3.10;2.90;;;5.00;58.80;;;;;;5018977;28;20207;-68
2020/12/26 06:43:52;;;;;;;3.30;3.10;;;5.00;58.70;;;;;;5017413;28;20218;-68
2020/12/26 06:46:39;;;;;;;3.27;3.07;;;5.10;58.60;;;;;;5020805;28;20239;-67
2020/12/26 06:49:25;;;;;;;3.47;3.20;;;5.10;58.60;;;;;;5018386;28;20210;-66
2020/12/26 06:51:52;;;;;;;3.30;3.00;;;5.10;58.60;;;;;;5020281;28;20216;-67
2020/12/26 06:54:45;;;;;;;3.03;2.83;;;5.10;58.50;;;;;;5018736;28;20776;-67
2020/12/26 06:57:39;;;;;;;3.20;2.90;;;5.20;58.50;;;;;;5018801;28;20231;-67
2020/12/26 07:00:28;;;;;;;3.33;3.00;;;5.10;58.30;;;;;;5021708;28;20210;-66
2020/12/26 07:03:21;;;;;;;3.30;3.00;;;5.20;58.30;;;;;;5021614;28;20203;-65
2020/12/26 07:05:50;;;;;;;2.97;2.77;;;5.20;58.10;;;;;;5019528;28;20648;-66
2020/12/26 07:08:33;;;;;;;3.17;2.87;;;5.10;58.10;;;;;;5019639;28;20256;-66
2020/12/26 07:11:03;;;;;;;3.40;3.10;;;5.10;58.00;;;;;;5020481;28;20214;-66
2020/12/26 07:13:50;;;;;;;3.43;3.17;;;5.10;58.00;;;;;;5018832;28;20587;-66
2020/12/26 07:16:42;;;;;;;3.37;3.10;;;5.10;57.90;;;;;;5019646;28;20242;-68
2020/12/26 07:19:40;;;;;;;3.13;2.93;;;5.10;57.90;;;;;;5003473;28;20221;-67
2020/12/26 07:22:13;;;;;;;3.23;3.03;;;5.10;57.90;;;;;;5020557;28;20210;-67
2020/12/26 07:24:42;;;;;;;3.27;2.97;;;5.10;58.00;;;;;;5019612;28;20203;-67
2020/12/26 07:27:16;;;;;;;3.20;3.00;;;5.10;58.10;;;;;;5018663;28;20782;-67
2020/12/26 07:29:55;;;;;;;5.40;3.30;;;5.10;58.20;;;;;;5018094;28;20229;-65
2020/12/26 07:32:51;;;;;;;3.30;3.10;;;5.10;58.20;;;;;;5019362;28;20240;-67
2020/12/26 07:35:41;;;;;;;3.43;3.13;;;5.10;58.20;;;;;;5020176;28;20202;-67
2020/12/26 07:38:14;;;;;;;3.23;2.93;;;5.10;58.20;;;;;;5021857;28;20282;-67
2020/12/26 07:40:44;;;;;;;4.07;3.67;;;5.20;58.40;;;;;;5020500;28;20304;-69
2020/12/26 07:43:13;;;;;;;3.60;3.30;;;5.20;58.30;;;;;;5021121;28;20207;-69
2020/12/26 07:45:41;;;;;;;3.47;3.27;;;5.20;58.20;;;;;;5020318;28;20276;-66
2020/12/26 07:48:09;;;;;;;3.43;3.17;;;5.30;58.20;;;;;;5019304;28;20234;-68
2020/12/26 07:50:38;;;;;;;3.43;3.20;;;5.30;58.10;;;;;;5018602;28;20218;-68
2020/12/26 07:53:07;;;;;;;3.80;3.40;;;5.30;58.10;;;;;;5018536;28;20222;-65
2020/12/26 07:55:35;;;;;;;4.20;3.47;;;5.30;58.20;;;;;;5018179;28;20206;-67
2020/12/26 07:58:07;;;;;;;3.97;3.67;;;5.40;58.20;;;;;;5019161;28;20233;-66
2020/12/26 08:00:36;;;;;;;3.73;3.43;;;5.50;58.20;;;;;;5019273;28;20213;-65
2020/12/26 08:03:05;;;;;;;4.03;3.60;;;5.50;58.20;;;;;;5018985;28;20206;-66
2020/12/26 08:05:33;;;;;;;3.77;3.47;;;5.50;58.20;;;;;;5019767;28;20237;-65
2020/12/26 08:08:00;;;;;;;3.60;3.30;;;5.60;58.70;;;;;;5019510;28;20214;-67
2020/12/26 08:10:28;;;;;;;4.00;3.60;;;5.70;58.10;;;;;;5019054;28;20216;-66
2020/12/26 08:12:58;;;;;;;3.83;3.47;;;5.70;58.00;;;;;;5017351;28;20223;-68
2020/12/26 08:15:27;;;;;;;4.00;3.70;;;5.80;57.90;;;;;;5020152;28;20225;-65
2020/12/26 08:18:00;;;;;;;4.27;3.90;;;5.80;57.70;;;;;;5018983;28;20217;-65
2020/12/26 08:20:29;;;;;;;4.30;3.90;;;5.90;57.50;;;;;;5018896;28;20218;-65
2020/12/26 08:22:56;;;;;;;3.70;3.40;;;6.00;57.60;;;;;;5019639;28;20221;-65
2020/12/26 08:25:25;;;;;;;3.93;3.63;;;6.00;57.50;;;;;;5018765;28;20214;-63
2020/12/26 08:27:52;;;;;;;3.63;3.37;;;6.00;57.30;;;;;;5018121;28;20206;-69
2020/12/26 08:30:28;;;;;;;3.50;3.20;;;6.10;57.30;;;;;;5018985;28;20217;-63
2020/12/26 08:33:08;;;;;;;3.23;3.03;;;6.10;57.10;;;;;;5019692;28;20708;-64
2020/12/26 08:35:38;;;;;;;3.10;2.90;;;6.20;57.00;;;;;;5018668;28;20207;-62
2020/12/26 08:38:20;;;;;;;2.90;2.70;;;6.20;57.00;;;;;;5019224;28;20741;-65
2020/12/26 08:40:55;;;;;;;2.60;2.30;;;6.30;56.60;;;;;;5017245;28;20206;-66
2020/12/26 08:43:22;;;;;;;2.63;2.43;;;6.40;56.40;;;;;;5018242;28;20261;-69
2020/12/26 08:45:50;;;;;;;3.00;2.80;;;6.50;56.50;;;;;;5016866;28;20230;-66
2020/12/26 08:48:18;;;;;;;2.70;2.50;;;6.50;56.20;;;;;;5016800;28;20218;-70
2020/12/26 08:50:54;;;;;;;2.70;2.50;;;6.60;56.00;;;;;;5019698;28;20211;-64
2020/12/26 08:53:23;;;;;;;2.30;2.20;;;6.60;55.40;;;;;;5017569;28;20235;-65
2020/12/26 08:55:51;;;;;;;2.40;2.13;;;6.70;55.60;;;;;;5017808;28;20237;-67
2020/12/26 08:58:30;;;;;;;2.13;1.93;;;6.70;55.40;;;;;;5019204;28;20256;-64
2020/12/26 09:00:59;;;;;;;1.90;1.80;;;6.80;54.80;;;;;;5018496;28;20210;-67
2020/12/26 09:03:28;;;;;;;2.20;2.07;;;6.80;55.10;;;;;;5018031;28;20207;-67
2020/12/26 09:05:56;;;;;;;2.60;2.40;;;6.90;54.90;;;;;;5018404;28;20288;-67
2020/12/26 09:08:30;;;;;;;2.53;2.33;;;7.00;54.80;;;;;;5017103;28;20199;-67
2020/12/26 09:11:01;;;;;;;2.30;2.10;;;7.00;54.50;;;;;;5018872;28;20270;-72
2020/12/26 09:13:36;;;;;;;2.13;2.03;;;7.20;54.80;;;;;;5019105;28;20238;-64
2020/12/26 09:16:07;;;;;;;2.07;1.87;;;7.30;54.50;;;;;;5021161;28;20328;-66
2020/12/26 09:18:43;;;;;;;2.07;1.87;;;7.40;54.60;;;;;;5021649;28;20245;-70
2020/12/26 09:21:21;;;;;;;1.97;1.83;;;7.50;54.10;;;;;;5019960;28;20708;-67
2020/12/26 09:23:50;;;;;;;2.37;2.20;;;7.60;54.50;;;;;;5021170;28;20214;-60
2020/12/26 09:26:21;;;;;;;1.73;1.63;;;7.70;54.10;;;;;;5021641;28;20936;-62
2020/12/26 09:28:51;;;;;;;1.90;1.50;;;7.80;53.70;;;;;;5021342;28;20594;-57
2020/12/26 09:31:22;;;;;;;1.93;1.83;;;7.90;53.20;;;;;;5022126;28;20210;-63
2020/12/26 09:33:48;;;;;;;2.60;2.40;;;7.90;53.20;;;;;;5022422;28;20237;-65
2020/12/26 09:36:19;;;;;;;2.67;2.47;;;8.00;53.90;;;;;;5020288;28;20290;-65
2020/12/26 09:38:46;;;;;;;3.20;2.90;;;8.30;54.70;;;;;;5021070;28;20203;-66
2020/12/26 09:41:20;;;;;;;3.40;3.10;;;8.80;55.50;;;;;;5019584;28;20203;-65
2020/12/26 09:43:49;;;;;;;3.17;2.87;;;9.40;55.30;;;;;;5022208;28;20207;-64
2020/12/26 09:46:16;;;;;;;2.70;2.50;;;10.00;55.20;;;;;;5022502;28;20219;-62
2020/12/26 09:48:44;;;;;;;2.73;2.53;;;10.60;53.90;;;;;;5020542;28;20213;-65
2020/12/26 09:51:15;;;;;;;3.00;2.80;;;10.90;52.40;;;;;;5019416;28;20248;-64
2020/12/26 09:53:43;;;;;;;2.60;2.40;;;11.20;52.10;;;;;;5017225;28;20230;-69
2020/12/26 09:56:10;;;;;;;2.30;2.10;;;11.50;52.60;;;;;;5019986;28;20690;-64
2020/12/26 09:58:38;;;;;;;2.40;2.20;;;12.00;53.10;;;;;;5019386;28;20741;-62
2020/12/26 10:01:05;;;;;;;2.17;1.97;;;12.60;53.20;;;;;;5017473;28;20680;-65
2020/12/26 10:03:31;;;;;;;2.20;2.00;;;13.30;53.00;;;;;;5018136;28;20214;-64
2020/12/26 10:05:59;;;;;;;1.93;1.80;;;14.10;52.60;;;;;;5018190;28;20245;-63
2020/12/26 10:08:28;;;;;;;1.93;1.83;;;14.80;51.70;;;;;;5020479;28;20401;-64
2020/12/26 10:10:55;;;;;;;1.50;1.40;;;15.50;51.20;;;;;;5016513;28;20221;-65
2020/12/26 10:13:21;;;;;;;1.37;1.20;;;16.20;50.50;;;;;;5019726;28;20238;-62
2020/12/26 10:15:48;;;;;;;1.33;1.20;;;16.80;50.10;;;;;;5018273;28;20598;-64
2020/12/26 10:18:14;;;;;;;0.90;0.90;;;17.40;48.90;;;;;;5017968;28;20210;-66
2020/12/26 10:20:41;;;;;;;0.90;0.90;;;18.00;48.00;;;;;;5019057;28;20203;-65
2020/12/26 10:23:09;;;;;;;1.03;0.90;;;18.40;47.60;;;;;;5017547;28;20207;-69
2020/12/26 10:25:36;;;;;;;1.23;0.90;;;18.70;47.60;;;;;;5018530;28;20327;-65
2020/12/26 10:28:02;;;;;;;0.93;0.70;;;19.00;48.30;;;;;;5018849;28;20210;-65
2020/12/26 10:30:29;;;;;;;1.03;1.00;;;19.40;47.60;;;;;;5017203;28;20229;-67
2020/12/26 10:32:55;;;;;;;1.07;1.03;;;19.80;47.50;;;;;;5013657;28;20292;-64
2020/12/26 10:35:22;;;;;;;0.90;0.77;;;20.10;47.40;;;;;;5018749;28;20211;-65
2020/12/26 10:37:48;;;;;;;1.43;0.90;;;20.40;46.30;;;;;;5018137;28;20222;-65
2020/12/26 10:40:16;;;;;;;0.80;0.80;;;20.70;46.00;;;;;;5020405;28;20206;-66
2020/12/26 10:42:42;;;;;;;1.00;0.90;;;20.90;45.40;;;;;;5020324;28;20195;-65
2020/12/26 10:45:09;;;;;;;1.90;1.00;;;21.00;45.10;;;;;;5021074;28;20206;-65
2020/12/26 10:47:35;;;;;;;1.30;1.20;;;21.10;44.90;;;;;;5020451;28;20230;-65
2020/12/26 10:50:02;;;;;;;1.13;0.90;;;21.20;43.60;;;;;;5018851;28;20218;-65
2020/12/26 10:52:29;;;;;;;1.00;0.70;;;21.20;43.70;;;;;;5018313;28;20361;-63
2020/12/26 10:54:55;;;;;;;0.93;0.83;;;21.20;43.80;;;;;;5019484;28;20214;-65
2020/12/26 10:57:22;;;;;;;3.90;2.70;;;21.20;43.70;;;;;;5019725;28;20265;-64
2020/12/26 10:59:49;;;;;;;4.10;1.90;;;21.20;44.00;;;;;;5016944;28;20591;-66
2020/12/26 11:02:15;;;;;;;1.57;1.33;;;21.30;44.00;;;;;;5020091;28;20200;-64
2020/12/26 11:04:42;;;;;;;2.17;1.97;;;21.30;44.40;;;;;;5018485;28;20210;-64
2020/12/26 11:07:08;;;;;;;2.40;1.90;;;21.30;43.70;;;;;;5020950;28;20227;-64
2020/12/26 11:09:35;;;;;;;1.50;1.30;;;21.40;43.30;;;;;;5019409;28;20206;-64
2020/12/26 11:12:01;;;;;;;1.70;1.23;;;21.30;42.80;;;;;;5020401;28;20329;-69
2020/12/26 11:14:29;;;;;;;1.03;0.97;;;21.20;42.30;;;;;;5017953;28;20230;-63
2020/12/26 11:16:55;;;;;;;1.17;0.97;;;20.90;41.60;;;;;;5019434;28;22072;-65
2020/12/26 11:19:22;;;;;;;1.10;0.80;;;20.70;41.90;;;;;;5019345;28;20264;-66
2020/12/26 11:21:52;;;;;;;1.07;0.90;;;20.40;42.20;;;;;;5018394;28;20214;-66
2020/12/26 11:24:21;;;;;;;1.20;1.10;;;20.20;41.90;;;;;;5018501;28;20202;-62
2020/12/26 11:26:47;;;;;;;1.00;0.90;;;20.00;42.50;;;;;;5018628;28;20241;-64
2020/12/26 11:29:15;;;;;;;1.27;0.77;;;19.90;42.30;;;;;;5019296;28;20218;-65
2020/12/26 11:31:42;;;;;;;0.80;0.80;;;19.80;42.90;;;;;;5018754;28;20295;-65
2020/12/26 11:34:10;;;;;;;1.80;0.90;;;19.70;42.10;;;;;;5018159;28;20245;-65
2020/12/26 11:36:38;;;;;;;1.10;1.00;;;19.60;42.10;;;;;;5018009;28;20237;-65
2020/12/26 11:39:04;;;;;;;0.77;0.70;;;19.40;41.60;;;;;;5019272;28;20255;-65
2020/12/26 11:41:31;;;;;;;1.37;1.10;;;19.20;41.50;;;;;;5018011;28;20226;-63
2020/12/26 11:43:58;;;;;;;1.30;0.80;;;18.80;41.50;;;;;;5017986;28;20253;-63
2020/12/26 11:46:25;;;;;;;1.00;1.00;;;18.60;41.60;;;;;;5018004;28;20222;-63
2020/12/26 11:48:54;;;;;;;0.83;0.83;;;18.30;41.20;;;;;;5017588;28;20237;-64
2020/12/26 11:51:20;;;;;;;1.37;1.27;;;17.90;40.80;;;;;;5017281;28;20211;-61
2020/12/26 11:53:47;;;;;;;1.63;1.10;;;17.50;41.00;;;;;;5018267;28;20845;-64
2020/12/26 11:56:15;;;;;;;2.33;1.27;;;17.00;40.90;;;;;;5017827;28;20231;-61
2020/12/26 11:58:44;;;;;;;1.30;1.20;;;16.50;41.10;;;;;;5019354;28;20698;-63
2020/12/26 12:01:11;;;;;;;1.60;1.50;;;16.10;41.30;;;;;;5019012;28;20233;-65
2020/12/26 12:03:38;;;;;;;1.50;1.40;;;15.70;41.30;;;;;;5020095;28;20290;-65
2020/12/26 12:06:06;;;;;;;2.13;1.63;;;15.20;41.10;;;;;;5020319;28;20253;-66
2020/12/26 12:08:32;;;;;;;1.70;1.60;;;14.70;41.00;;;;;;5019246;28;20582;-62
2020/12/26 12:10:59;;;;;;;1.80;1.70;;;14.30;41.10;;;;;;5017823;28;20210;-62
2020/12/26 12:13:25;;;;;;;2.10;1.90;;;13.90;41.50;;;;;;5018786;28;20223;-63
2020/12/26 12:15:52;;;;;;;1.40;1.30;;;13.50;41.80;;;;;;5019048;28;20242;-66
2020/12/26 12:18:18;;;;;;;1.40;1.30;;;13.10;42.00;;;;;;5018441;28;20582;-64
2020/12/26 12:20:45;;;;;;;2.57;1.57;;;12.80;42.10;;;;;;5018088;28;20614;-64
2020/12/26 12:23:12;;;;;;;1.40;1.30;;;12.50;42.50;;;;;;5019411;28;20210;-65
2020/12/26 12:25:40;;;;;;;1.17;1.07;;;12.30;42.50;;;;;;5018334;28;20298;-63
2020/12/26 12:28:07;;;;;;;1.70;1.57;;;12.00;43.40;;;;;;5019839;28;20604;-64
2020/12/26 12:30:33;;;;;;;1.70;1.60;;;11.90;43.20;;;;;;5018302;28;20241;-63
2020/12/26 12:33:00;;;;;;;1.73;1.63;;;11.80;43.70;;;;;;5017128;28;20226;-62
2020/12/26 12:35:26;;;;;;;2.10;1.30;;;11.70;44.20;;;;;;5018184;28;20591;-66
2020/12/26 12:37:53;;;;;;;1.50;1.17;;;11.80;44.20;;;;;;5018692;28;20701;-65
2020/12/26 12:40:20;;;;;;;1.30;1.20;;;11.90;44.20;;;;;;5018843;28;20214;-65
2020/12/26 12:42:47;;;;;;;1.30;1.20;;;12.00;44.00;;;;;;5018535;28;20294;-63
2020/12/26 12:45:14;;;;;;;1.27;1.17;;;12.00;43.90;;;;;;5018886;28;20210;-64
2020/12/26 12:47:40;;;;;;;1.43;1.33;;;12.10;43.70;;;;;;5021270;28;20225;-65
2020/12/26 12:50:09;;;;;;;1.30;1.20;;;12.10;43.30;;;;;;5021702;28;20207;-63
2020/12/26 12:52:36;;;;;;;2.57;1.20;;;12.10;43.00;;;;;;5023024;28;20206;-65
2020/12/26 12:55:05;;;;;;;1.27;1.17;;;12.00;42.70;;;;;;5022787;28;20215;-66
2020/12/26 12:57:33;;;;;;;1.30;1.20;;;11.90;42.20;;;;;;5023285;28;20727;-64
2020/12/26 12:59:59;;;;;;;1.43;1.20;;;11.80;42.20;;;;;;5022624;28;20210;-65
2020/12/26 13:02:26;;;;;;;1.27;1.17;;;11.60;42.10;;;;;;5022205;28;20207;-61
2020/12/26 13:04:52;;;;;;;1.53;1.33;;;11.40;41.90;;;;;;5022740;28;20210;-64
2020/12/26 13:07:19;;;;;;;1.50;1.40;;;11.20;42.10;;;;;;5021016;28;20276;-64